createdAt,value
2023-03-31T00:00:24.842Z,4.7
2023-03-31T00:06:17.321Z,4.6
2023-03-31T00:12:02.299Z,4.6
2023-03-31T00:17:56.087Z,4.6
2023-03-31T00:23:47.232Z,4.6
2023-03-31T00:29:38.864Z,4.7
2023-03-31T00:35:30.845Z,4.8
2023-03-31T00:41:25.067Z,4.9
2023-03-31T00:47:17.390Z,5
2023-03-31T00:53:09.671Z,5.2
2023-03-31T00:59:01.266Z,5.3
2023-03-31T01:04:53.696Z,5.4
2023-03-31T01:10:45.539Z,5.6
2023-03-31T01:16:37.343Z,5.8
2023-03-31T01:22:30.014Z,5.8
2023-03-31T01:28:21.834Z,5.9
2023-03-31T01:34:12.894Z,6.1
2023-03-31T01:39:49.196Z,6.2
2023-03-31T01:45:40.928Z,6.3
2023-03-31T01:51:32.905Z,6.4
2023-03-31T01:57:24.857Z,6.7
2023-03-31T02:03:16.682Z,6.8
2023-03-31T02:08:52.564Z,7.2
2023-03-31T02:14:44.260Z,7.4
2023-03-31T02:20:36.395Z,7.8
2023-03-31T02:26:27.665Z,8
2023-03-31T02:32:19.920Z,7.9
2023-03-31T02:38:11.901Z,7.9
2023-03-31T02:44:03.083Z,7.9
2023-03-31T02:49:54.872Z,7.8
2023-03-31T02:55:46.877Z,7.7
2023-03-31T03:01:38.406Z,7.6
2023-03-31T03:07:17.195Z,7.6
2023-03-31T03:12:53.992Z,7.6
2023-03-31T03:18:30.359Z,7.6
2023-03-31T03:24:08.133Z,7.6
2023-03-31T03:29:59.912Z,7.6
2023-03-31T03:35:52.056Z,7.6
2023-03-31T03:41:43.087Z,7.6
2023-03-31T03:47:35.522Z,7.6
2023-03-31T03:53:11.877Z,7.7
2023-03-31T03:58:48.949Z,7.6
2023-03-31T04:04:28.244Z,7.6
2023-03-31T04:10:05.320Z,7.6
2023-03-31T04:15:41.444Z,7.7
2023-03-31T04:21:06.029Z,7.8
2023-03-31T04:26:26.281Z,7.8
2023-03-31T04:32:02.235Z,7.8
2023-03-31T04:37:39.074Z,7.9
2023-03-31T04:43:14.823Z,7.9
2023-03-31T04:49:07.061Z,8
2023-03-31T04:54:46.854Z,8.1
2023-03-31T05:00:23.235Z,8.3
2023-03-31T05:06:16.584Z,8.4
2023-03-31T05:12:10.062Z,8.8
2023-03-31T05:18:01.168Z,9.1
2023-03-31T05:23:55.399Z,9.5
2023-03-31T05:29:47.716Z,10.3
2023-03-31T05:35:42.016Z,11.4
2023-03-31T05:41:33.848Z,12.6
2023-03-31T05:47:27.001Z,14.6
2023-03-31T05:53:21.408Z,16.8
2023-03-31T05:59:15.070Z,17.7
2023-03-31T06:05:09.210Z,18.1
2023-03-31T06:10:59.681Z,18.4
2023-03-31T06:22:45.332Z,19.3
2023-03-31T06:28:44.125Z,20.9
2023-03-31T06:34:37.726Z,24.1
2023-03-31T06:40:29.538Z,29.7
2023-03-31T06:46:07.057Z,35.9
2023-03-31T06:51:58.855Z,37.1
2023-03-31T06:57:51.604Z,36.3
2023-03-31T07:03:31.421Z,36
2023-03-31T07:09:07.653Z,38.8
2023-03-31T07:15:06.619Z,45.2
2023-03-31T07:20:58.607Z,52.1
2023-03-31T07:26:50.606Z,49.3
2023-03-31T07:32:45.917Z,37.5
2023-03-31T07:38:49.137Z,43.6
2023-03-31T07:44:34.008Z,47.9
2023-03-31T07:50:11.288Z,52.3
2023-03-31T07:56:02.580Z,45.4
2023-03-31T08:01:54.429Z,42.8
2023-03-31T08:07:47.285Z,43.6
2023-03-31T08:13:38.459Z,43.3
2023-03-31T08:19:43.407Z,41.8
2023-03-31T08:25:40.318Z,53.8
2023-03-31T08:31:33.754Z,55.9
2023-03-31T08:37:25.422Z,52.5
2023-03-31T08:43:16.372Z,50.8
2023-03-31T08:49:08.737Z,44.3
2023-03-31T08:54:59.593Z,51.7
2023-03-31T09:00:53.438Z,52.6
2023-03-31T09:07:11.030Z,42.8
2023-03-31T09:13:03.088Z,43.8
2023-03-31T09:18:59.312Z,44.5
2023-03-31T09:24:50.698Z,53.1
2023-03-31T09:30:41.993Z,59.4
2023-03-31T09:36:36.606Z,51.3
2023-03-31T09:41:56.290Z,53.6
2023-03-31T09:48:07.242Z,49.8
2023-03-31T09:54:07.211Z,53.2
2023-03-31T10:00:09.347Z,53.2
2023-03-31T10:06:02.173Z,47.4
2023-03-31T10:11:38.431Z,46.1
2023-03-31T10:17:30.416Z,45.4
2023-03-31T10:23:15.215Z,45.3
2023-03-31T10:28:51.406Z,45.1
2023-03-31T10:34:34.695Z,44.9
2023-03-31T10:40:27.237Z,44.1
2023-03-31T10:46:28.359Z,43.3
2023-03-31T10:52:20.706Z,42
2023-03-31T10:58:00.621Z,41.1
2023-03-31T11:03:52.540Z,40.4
2023-03-31T11:09:47.409Z,39.4
2023-03-31T11:15:23.806Z,40.3
2023-03-31T11:21:01.742Z,44.4
2023-03-31T11:26:53.307Z,46.9
2023-03-31T11:32:47.687Z,50.9
2023-03-31T11:38:40.653Z,53.4
2023-03-31T11:44:33.441Z,59.2
2023-03-31T11:50:10.065Z,47.3
2023-03-31T11:56:01.480Z,41.3
2023-03-31T12:01:37.646Z,46.4
2023-03-31T12:07:30.029Z,53.7
2023-03-31T12:13:21.958Z,60
2023-03-31T12:18:59.345Z,57.3
2023-03-31T12:24:50.331Z,48.7
2023-03-31T12:30:41.348Z,50.6
2023-03-31T12:36:33.631Z,52.4
2023-03-31T12:42:09.781Z,64.2
2023-03-31T12:47:46.317Z,59.6
2023-03-31T12:53:40.763Z,54.1
2023-03-31T12:59:34.303Z,56.2
2023-03-31T13:05:28.893Z,56.4
2023-03-31T13:11:33.503Z,54.8
2023-03-31T13:17:40.081Z,49.5
2023-03-31T13:23:33.794Z,53.8
2023-03-31T13:29:24.210Z,58.8
2023-03-31T13:35:18.996Z,57.8
2023-03-31T13:40:57.700Z,51.3
2023-03-31T13:46:50.054Z,52
2023-03-31T13:52:45.384Z,53.2
2023-03-31T13:58:58.876Z,52.6
2023-03-31T14:04:51.899Z,53.8
2023-03-31T14:10:12.581Z,55
2023-03-31T14:15:49.847Z,55.9
2023-03-31T14:21:42.184Z,56.4
2023-03-31T14:27:34.576Z,55.7
2023-03-31T14:33:27.653Z,54.8
2023-03-31T14:39:19.910Z,53.6
2023-03-31T14:45:11.084Z,51.9
2023-03-31T14:50:32.444Z,50.5
2023-03-31T14:56:47.334Z,48.8
2023-03-31T15:02:39.671Z,46.8
2023-03-31T15:08:41.816Z,44.8
2023-03-31T15:14:54.416Z,42.8
2023-03-31T15:20:46.956Z,41.1
2023-03-31T15:26:47.456Z,39.1
2023-03-31T15:33:01.400Z,37.2
2023-03-31T15:39:11.686Z,35.4
2023-03-31T15:45:21.439Z,34
2023-03-31T15:51:12.645Z,32.4
2023-03-31T15:57:07.546Z,31.1
2023-03-31T16:03:18.444Z,29.5
2023-03-31T16:09:07.611Z,28.2
2023-03-31T16:14:59.544Z,26.9
2023-03-31T16:20:35.658Z,25.5
2023-03-31T16:26:11.655Z,24.3
2023-03-31T16:31:48.508Z,23.3
2023-03-31T16:37:25.458Z,22.2
2023-03-31T16:43:01.131Z,21.1
2023-03-31T16:49:08.204Z,19.9
2023-03-31T16:54:59.571Z,18.9
2023-03-31T17:00:35.988Z,18
2023-03-31T17:06:41.381Z,17.2
2023-03-31T17:12:32.854Z,16.5
2023-03-31T17:18:49.935Z,15.8
2023-03-31T17:24:41.170Z,15.3
2023-03-31T17:30:17.523Z,14.8
2023-03-31T17:35:54.298Z,14.3
2023-03-31T17:41:45.976Z,13.9
2023-03-31T17:47:40.097Z,13.4
2023-03-31T17:53:31.932Z,12.9
2023-03-31T17:59:23.863Z,12.5
2023-03-31T18:05:18.269Z,12.1
2023-03-31T18:11:20.448Z,11.8
2023-03-31T18:17:11.989Z,11.6
2023-03-31T18:23:05.385Z,11.4
2023-03-31T18:28:56.960Z,11.3
2023-03-31T18:34:34.632Z,11.2
2023-03-31T18:40:12.818Z,10.9
2023-03-31T18:46:06.366Z,10.6
2023-03-31T18:51:42.875Z,10.4
2023-03-31T18:57:03.860Z,10.2
2023-03-31T19:02:57.015Z,9.9
2023-03-31T19:08:48.754Z,9.8
2023-03-31T19:14:40.740Z,9.5
2023-03-31T19:20:33.375Z,9.4
2023-03-31T19:26:24.571Z,9.2
2023-03-31T19:32:16.170Z,9.1
2023-03-31T19:37:52.689Z,9
2023-03-31T19:43:46.961Z,8.9
2023-03-31T19:49:39.061Z,8.8
2023-03-31T19:55:30.397Z,8.7
2023-03-31T20:01:06.233Z,8.6
2023-03-31T20:07:00.916Z,8.4
2023-03-31T20:12:52.926Z,8.4
2023-03-31T20:18:45.784Z,8.3
2023-03-31T20:24:21.924Z,8.1
2023-03-31T20:29:58.920Z,8
2023-03-31T20:35:35.181Z,7.9
2023-03-31T20:41:11.873Z,7.7
2023-03-31T20:46:50.340Z,7.6
2023-03-31T20:52:26.277Z,7.5
2023-03-31T20:58:02.738Z,7.4
2023-03-31T21:03:55.229Z,7.4
2023-03-31T21:09:51.567Z,7.3
2023-03-31T21:15:42.906Z,7.3
2023-03-31T21:21:21.045Z,7.1
2023-03-31T21:27:12.102Z,7.2
2023-03-31T21:32:32.829Z,7.1
2023-03-31T21:38:24.813Z,7.1
2023-03-31T21:44:18.693Z,7.1
2023-03-31T21:50:10.268Z,7.1
2023-03-31T21:56:01.591Z,7.1
2023-03-31T22:01:53.643Z,7.1
2023-03-31T22:07:54.674Z,7.2
2023-03-31T22:13:46.304Z,7.4
2023-03-31T22:19:22.883Z,7.4
2023-03-31T22:24:44.118Z,7.5
2023-03-31T22:30:36.118Z,7.6
2023-03-31T22:36:28.357Z,7.6
2023-03-31T22:42:19.844Z,7.7
2023-03-31T22:48:15.052Z,7.8
2023-03-31T22:53:50.153Z,7.8
2023-03-31T22:59:51.090Z,7.8
2023-03-31T23:05:43.277Z,7.8
2023-03-31T23:11:36.652Z,7.7
2023-03-31T23:16:57.248Z,7.8
2023-03-31T23:22:49.387Z,7.8
2023-03-31T23:28:41.199Z,7.9
2023-03-31T23:34:33.110Z,7.9
2023-03-31T23:40:25.096Z,7.9
2023-03-31T23:46:15.854Z,7.9
2023-03-31T23:52:07.086Z,8
2023-03-31T23:57:58.629Z,8.1
